Orchard City, Colorado
Current Conditions -  °F | °C
As of 11:35 AM on Saturday 25 Oct 2014 (Local Time) from KAJZ Reporting Station
Clear Clear  
Wind Chill: 62°   Ceiling: Unl
Heat Index: 62°   Visibility: 10mi
Dew Point: 31°   Wind: 3mph
Humidity: 31%   Direction: 140°SE
Pressure: 30.28"   Gusts: NA
Location:  38.7882°N, 107.986°W
Report Text: KAJZ 251735Z AUTO 14003KT 10SM CLR 17/M01 A3028 RMK AO2 T01661008
Loading
Personal Weather Stations






























Interactive Weather Map
Tropical Storm Tracking
New forecast layout! Learn more

10-Day Weather Forecast

Advertisements
Track Severe Weather on mobile